Time;durP1;ratioP1;P1;durP2;ratioP2;P2;SDS_P1;SDS_P2;PMS_P1;PMS_P2;Temp;Humidity;BMP_temperature;BMP_pressure;BME280_temperature;BME280_humidity;BME280_pressure;Samples;Min_cycle;Max_cycle;Signal;HPM_P1;HPM_P2
2023/08/04 00:00:16;;;;;;;814.83;753.93;;;;;;;17.94;82.65;99222.13;5041765;28;20044;-72
2023/08/04 00:02:41;;;;;;;836.50;777.72;;;;;;;17.88;82.60;99231.72;5041527;28;20305;-73
2023/08/04 00:05:08;;;;;;;849.00;787.97;;;;;;;17.91;82.50;99233.81;5041426;28;20029;-73
2023/08/04 00:07:34;;;;;;;862.83;796.50;;;;;;;17.91;82.85;99242.06;5041244;28;20040;-72
2023/08/04 00:09:59;;;;;;;702.13;652.42;;;;;;;17.88;82.65;99245.50;5041386;28;20036;-74
2023/08/04 00:12:24;;;;;;;630.08;586.38;;;;;;;17.90;82.56;99246.00;5041533;28;20029;-73
2023/08/04 00:14:50;;;;;;;868.33;807.00;;;;;;;17.91;82.58;99242.91;5040937;28;20036;-72
2023/08/04 00:17:16;;;;;;;812.40;754.35;;;;;;;17.96;82.27;99233.63;5041609;28;20029;-73
2023/08/04 00:19:42;;;;;;;647.58;603.28;;;;;;;17.97;82.05;99240.78;5042216;28;20043;-76
2023/08/04 00:22:07;;;;;;;845.92;785.10;;;;;;;17.93;82.13;99234.28;5041565;28;20036;-77
2023/08/04 00:24:33;;;;;;;874.70;812.37;;;;;;;17.88;81.92;99237.22;5041127;28;20045;-76
2023/08/04 00:26:59;;;;;;;815.55;756.67;;;;;;;17.85;82.36;99236.75;5041908;28;20285;-76
2023/08/04 00:29:25;;;;;;;768.25;714.30;;;;;;;17.87;82.29;99236.41;5041331;28;20692;-77
2023/08/04 00:31:50;;;;;;;878.20;815.53;;;;;;;17.88;82.04;99238.03;5041622;28;20029;-77
2023/08/04 00:34:15;;;;;;;772.73;719.17;;;;;;;17.91;82.13;99242.06;5040803;28;20615;-78
2023/08/04 00:36:41;;;;;;;842.77;783.97;;;;;;;17.92;81.92;99240.97;5042021;28;20266;-78
2023/08/04 00:39:06;;;;;;;747.55;696.25;;;;;;;17.93;81.69;99246.13;5041861;28;20972;-77
2023/08/04 00:41:31;;;;;;;856.30;793.63;;;;;;;17.88;81.87;99253.78;5041754;28;20280;-77
2023/08/04 00:43:56;;;;;;;651.38;607.65;;;;;;;17.87;82.01;99254.91;5041584;28;20266;-77
2023/08/04 00:46:22;;;;;;;655.17;610.05;;;;;;;17.80;82.03;99250.69;5041586;28;20080;-76
2023/08/04 00:48:51;;;;;;;655.08;611.72;;;;;;;17.77;82.15;99256.88;5041124;28;20082;-76
2023/08/04 00:51:16;;;;;;;648.40;605.35;;;;;;;17.77;82.21;99256.03;5041662;28;20079;-77
2023/08/04 00:53:43;;;;;;;544.88;510.13;;;;;;;17.73;82.32;99256.72;5041676;28;20472;-77
2023/08/04 00:56:08;;;;;;;749.22;698.45;;;;;;;17.80;82.28;99255.38;5045244;28;20071;-76
2023/08/04 00:58:33;;;;;;;739.08;688.08;;;;;;;17.78;82.33;99258.47;5045570;28;20060;-77
2023/08/04 01:01:00;;;;;;;814.90;758.87;;;;;;;17.77;82.05;99262.38;5045628;28;20033;-78
2023/08/04 01:03:26;;;;;;;537.78;504.52;;;;;;;17.74;82.17;99263.00;5044084;28;21018;-77
2023/08/04 01:06:06;;;;;;;930.10;860.92;;;;;;;17.75;82.28;99267.41;5045911;28;20040;-76
2023/08/04 01:08:34;;;;;;;696.25;648.50;;;;;;;17.71;82.23;99270.00;5045128;28;20109;-77
2023/08/04 01:11:13;;;;;;;766.85;715.40;;;;;;;17.66;82.37;99269.34;5046071;28;20541;-76
2023/08/04 01:13:41;;;;;;;639.35;597.00;;;;;;;17.72;82.73;99270.78;5045517;28;20040;-76
2023/08/04 01:16:07;;;;;;;550.25;516.45;;;;;;;17.73;82.37;99273.25;5045784;28;20033;-77
2023/08/04 01:18:33;;;;;;;810.38;753.95;;;;;;;17.73;82.55;99273.25;5044662;28;20063;-76
2023/08/04 01:21:05;;;;;;;721.88;674.10;;;;;;;17.72;82.32;99276.31;5045912;28;20072;-77
2023/08/04 01:23:31;;;;;;;695.90;649.75;;;;;;;17.70;82.73;99270.31;5045269;28;20036;-76
2023/08/04 01:25:57;;;;;;;753.65;702.90;;;;;;;17.76;82.44;99276.50;5046203;28;20045;-77
2023/08/04 01:28:23;;;;;;;897.38;832.22;;;;;;;17.70;82.54;99278.56;5045240;28;20666;-73
2023/08/04 01:30:52;;;;;;;893.08;828.25;;;;;;;17.73;82.74;99273.25;5044912;28;20056;-73
2023/08/04 01:33:18;;;;;;;690.90;640.03;;;;;;;17.71;82.62;99280.22;5043881;28;20025;-73
2023/08/04 01:35:43;;;;;;;887.97;822.33;;;;;;;17.67;82.98;99279.25;5026725;28;20469;-73
2023/08/04 01:38:09;;;;;;;831.63;773.70;;;;;;;17.67;83.13;99280.06;5044597;28;20098;-76
2023/08/04 01:40:35;;;;;;;642.22;598.38;;;;;;;17.61;83.50;99293.16;5045322;28;20449;-76
2023/08/04 01:43:00;;;;;;;831.70;772.45;;;;;;;17.62;83.46;99291.22;5045412;28;20032;-77
2023/08/04 01:45:25;;;;;;;736.50;683.97;;;;;;;17.54;84.08;99297.53;5044475;28;20676;-77
2023/08/04 01:47:51;;;;;;;800.60;744.60;;;;;;;17.56;84.11;99289.78;5045162;28;20037;-76
2023/08/04 01:50:17;;;;;;;652.90;607.85;;;;;;;17.60;83.92;99294.31;5045148;28;20037;-77
2023/08/04 01:52:42;;;;;;;734.50;682.25;;;;;;;17.66;83.63;99300.47;5045242;28;20064;-77
2023/08/04 01:55:07;;;;;;;750.97;698.77;;;;;;;17.62;83.80;99297.56;5044433;28;20478;-77
2023/08/04 01:57:33;;;;;;;717.30;666.00;;;;;;;17.65;83.99;99303.56;5044304;28;20337;-76
2023/08/04 01:59:58;;;;;;;690.17;641.43;;;;;;;17.59;84.28;99294.66;5043673;28;20086;-76
2023/08/04 02:02:23;;;;;;;834.87;773.50;;;;;;;17.62;84.06;99294.81;5044169;28;20277;-76
2023/08/04 02:04:49;;;;;;;719.58;668.40;;;;;;;17.62;84.17;99289.28;5044181;28;20949;-77
2023/08/04 02:07:14;;;;;;;735.55;678.25;;;;;;;17.60;84.30;99294.31;5044879;28;20063;-76
2023/08/04 02:09:39;;;;;;;789.83;733.53;;;;;;;17.59;84.26;99295.44;5044699;28;20032;-77
2023/08/04 02:12:05;;;;;;;676.47;629.47;;;;;;;17.60;84.28;99291.56;5044622;28;20277;-76
2023/08/04 02:14:30;;;;;;;864.10;802.38;;;;;;;17.55;84.38;99297.25;5044011;28;20064;-77
2023/08/04 02:16:56;;;;;;;728.22;677.53;;;;;;;17.50;84.47;99295.44;5044398;28;20550;-76
2023/08/04 02:19:22;;;;;;;895.40;830.65;;;;;;;17.53;84.75;99307.78;5044532;28;20036;-77
2023/08/04 02:21:48;;;;;;;750.70;697.35;;;;;;;17.62;84.62;99305.81;5044100;28;20471;-77
2023/08/04 02:24:13;;;;;;;717.67;666.15;;;;;;;17.61;84.43;99306.16;5044515;28;20029;-76
2023/08/04 02:26:39;;;;;;;766.28;709.03;;;;;;;17.62;84.25;99296.75;5044168;28;20040;-76
2023/08/04 02:29:04;;;;;;;811.92;751.70;;;;;;;17.62;84.40;99307.78;5044513;28;20044;-77
2023/08/04 02:31:32;;;;;;;742.47;687.90;;;;;;;17.63;84.22;99298.38;5043925;28;20041;-76
2023/08/04 02:33:58;;;;;;;690.58;641.72;;;;;;;17.65;84.30;99309.06;5044336;28;20049;-77
2023/08/04 02:36:24;;;;;;;763.40;707.38;;;;;;;17.63;84.09;99317.66;5043686;28;20150;-76
2023/08/04 02:38:50;;;;;;;978.60;900.03;;;;;;;17.64;84.25;99307.44;5044062;28;20075;-76
2023/08/04 02:41:15;;;;;;;986.88;908.08;;;;;;;17.61;84.39;99309.69;5043792;28;20123;-77
2023/08/04 02:43:40;;;;;;;982.40;900.88;;;;;;;17.59;84.60;99305.66;5043196;28;20037;-76
2023/08/04 02:46:06;;;;;;;990.00;908.37;;;;;;;17.58;84.60;99315.88;5043904;28;20048;-77
2023/08/04 02:48:31;;;;;;;957.80;878.77;;;;;;;17.62;84.44;99316.84;5043431;28;20269;-72
2023/08/04 02:51:02;;;;;;;1006.17;922.75;;;;;;;17.62;84.29;99305.81;5043150;28;20270;-72
2023/08/04 02:53:27;;;;;;;978.50;900.55;;;;;;;17.58;84.48;99312.31;5042233;28;20064;-72
2023/08/04 02:55:53;;;;;;;977.88;901.25;;;;;;;17.57;84.47;99313.44;5043040;28;20151;-73
2023/08/04 02:58:18;;;;;;;966.67;887.33;;;;;;;17.53;84.40;99313.28;5042442;28;20028;-72
2023/08/04 03:00:43;;;;;;;906.47;833.00;;;;;;;17.54;84.37;99317.66;5042861;28;20300;-72
2023/08/04 03:03:08;;;;;;;919.37;847.73;;;;;;;17.51;84.37;99321.06;5042976;28;20128;-72
2023/08/04 03:05:34;;;;;;;825.47;762.37;;;;;;;17.53;84.37;99318.81;5042037;28;21022;-72
2023/08/04 03:08:00;;;;;;;776.13;718.28;;;;;;;17.56;84.57;99317.31;5042746;28;20316;-72
2023/08/04 03:10:25;;;;;;;852.35;784.88;;;;;;;17.59;84.06;99323.00;5042193;28;20029;-72
2023/08/04 03:12:50;;;;;;;897.35;824.70;;;;;;;17.55;84.35;99330.31;5024716;28;20044;-72
2023/08/04 03:15:15;;;;;;;786.33;728.45;;;;;;;17.48;84.51;99327.22;5042015;28;20055;-74
2023/08/04 03:17:41;;;;;;;702.60;651.70;;;;;;;17.49;84.33;99339.88;5042436;28;20721;-72
2023/08/04 03:20:06;;;;;;;805.80;746.50;;;;;;;17.48;84.59;99341.00;5042474;28;20296;-74
2023/08/04 03:22:32;;;;;;;792.40;734.03;;;;;;;17.56;84.26;99333.84;5042306;28;20033;-73
2023/08/04 03:24:57;;;;;;;734.90;681.93;;;;;;;17.57;84.22;99339.06;5042024;28;20036;-72
2023/08/04 03:27:23;;;;;;;822.55;756.38;;;;;;;17.53;84.08;99340.03;5041996;28;20305;-72
2023/08/04 03:29:49;;;;;;;830.22;765.92;;;;;;;17.54;83.97;99342.47;5042319;28;20594;-72
2023/08/04 03:32:14;;;;;;;1012.33;930.75;;;;;;;17.51;84.15;99348.63;5042178;28;20044;-73
2023/08/04 03:34:39;;;;;;;1031.78;944.72;;;;;;;17.50;84.04;99347.00;5042381;28;21099;-73
2023/08/04 03:37:05;;;;;;;1009.17;925.50;;;;;;;17.47;84.13;99350.41;5042001;28;20123;-73
2023/08/04 03:39:30;;;;;;;1008.92;922.15;;;;;;;17.41;83.88;99352.47;5042046;28;20250;-72
2023/08/04 03:41:55;;;;;;;959.63;881.10;;;;;;;17.29;84.52;99352.31;5041844;28;20375;-73
2023/08/04 03:44:20;;;;;;;1024.20;939.37;;;;;;;17.28;84.82;99362.50;5042088;28;20262;-72
2023/08/04 03:46:46;;;;;;;1021.10;937.08;;;;;;;17.33;84.89;99356.06;5042156;28;20879;-73
2023/08/04 03:49:11;;;;;;;1017.47;928.53;;;;;;;17.38;84.76;99364.97;5042438;28;20040;-76
2023/08/04 03:51:36;;;;;;;1027.77;936.53;;;;;;;17.37;84.58;99366.09;5043152;28;20265;-76
2023/08/04 03:54:02;;;;;;;1021.33;934.70;;;;;;;17.34;84.83;99365.91;5042659;28;20269;-76
2023/08/04 03:56:27;;;;;;;1019.53;935.70;;;;;;;17.34;84.99;99363.16;5042568;28;20284;-77
2023/08/04 03:58:52;;;;;;;1023.70;938.63;;;;;;;17.37;84.71;99362.53;5042758;28;20035;-73
2023/08/04 04:01:18;;;;;;;901.43;826.53;;;;;;;17.41;84.59;99354.44;5041780;28;20262;-72
2023/08/04 04:03:43;;;;;;;920.55;845.75;;;;;;;17.46;84.28;99357.84;5041309;28;20317;-72
2023/08/04 04:06:08;;;;;;;921.87;845.97;;;;;;;17.44;84.40;99364.81;5042361;28;20045;-72
2023/08/04 04:08:33;;;;;;;939.00;862.40;;;;;;;17.42;84.37;99372.56;5041078;28;20841;-73
2023/08/04 04:10:59;;;;;;;986.22;905.55;;;;;;;17.41;84.24;99370.97;5041882;28;20254;-72
2023/08/04 04:13:24;;;;;;;943.40;866.67;;;;;;;17.37;84.30;99368.84;5041163;28;20040;-75
2023/08/04 04:15:49;;;;;;;715.55;663.15;;;;;;;17.37;84.39;99365.28;5041558;28;20041;-73
2023/08/04 04:18:15;;;;;;;747.03;691.97;;;;;;;17.38;84.55;99373.22;5041826;28;20037;-73
2023/08/04 04:20:40;;;;;;;692.50;641.72;;;;;;;17.44;84.38;99381.34;5042014;28;21138;-73
2023/08/04 04:23:06;;;;;;;1023.08;940.80;;;;;;;17.48;84.32;99383.13;5041366;28;20033;-73
2023/08/04 04:25:31;;;;;;;1017.93;932.80;;;;;;;17.45;84.19;99381.00;5040950;28;20048;-72
2023/08/04 04:27:56;;;;;;;801.38;740.95;;;;;;;17.44;84.18;99378.59;5041707;28;20265;-73
2023/08/04 04:30:22;;;;;;;713.47;661.00;;;;;;;17.47;84.22;99386.22;5045060;28;20237;-72
2023/08/04 04:32:47;;;;;;;703.80;652.15;;;;;;;17.42;84.03;99394.63;5045554;28;20036;-72
2023/08/04 04:35:12;;;;;;;817.03;755.47;;;;;;;17.33;84.41;99395.41;5045137;28;20150;-72
2023/08/04 04:37:38;;;;;;;769.15;710.03;;;;;;;17.41;84.52;99387.50;5045988;28;20270;-72
2023/08/04 04:40:03;;;;;;;754.40;699.70;;;;;;;17.43;84.32;99397.03;5045023;28;20044;-72
2023/08/04 04:42:31;;;;;;;697.67;648.08;;;;;;;17.48;83.94;99390.59;5045398;28;20448;-73
2023/08/04 04:44:56;;;;;;;950.78;873.70;;;;;;;17.48;84.16;99396.09;5044809;28;20102;-72
2023/08/04 04:47:22;;;;;;;719.65;665.45;;;;;;;17.45;84.44;99396.75;5045309;28;20036;-73
2023/08/04 04:49:47;;;;;;;661.97;614.70;;;;;;;17.45;84.38;99399.50;5045241;28;20469;-72
2023/08/04 04:52:27;;;;;;;660.33;612.83;;;;;;;17.43;84.42;99394.28;5045421;28;20124;-72
2023/08/04 04:54:53;;;;;;;745.92;692.90;;;;;;;17.44;84.16;99398.69;5044522;28;20120;-73
2023/08/04 04:57:18;;;;;;;772.77;717.67;;;;;;;17.49;84.40;99400.50;5045093;28;20037;-72
2023/08/04 04:59:43;;;;;;;863.37;800.87;;;;;;;17.49;84.33;99400.50;5046292;28;20758;-77
2023/08/04 05:02:08;;;;;;;802.80;745.73;;;;;;;17.57;83.66;99401.63;5046128;28;20288;-77
2023/08/04 05:04:34;;;;;;;719.35;664.53;;;;;;;17.50;84.15;99397.41;5046056;28;20273;-77
2023/08/04 05:06:59;;;;;;;686.50;636.47;;;;;;;17.54;84.16;99402.25;5046268;28;20079;-77
2023/08/04 05:09:24;;;;;;;753.27;697.00;;;;;;;17.59;83.97;99405.69;5045554;28;20427;-74
2023/08/04 05:11:49;;;;;;;748.23;692.47;;;;;;;17.61;83.75;99408.91;5044637;28;20276;-72
2023/08/04 05:14:15;;;;;;;727.87;674.37;;;;;;;17.57;84.20;99412.66;5044581;28;20327;-73
2023/08/04 05:16:42;;;;;;;1025.73;938.60;;;;;;;17.48;84.05;99415.38;5044915;28;20369;-73
2023/08/04 05:19:07;;;;;;;972.85;897.60;;;;;;;17.35;85.16;99417.94;5045227;28;20336;-73
2023/08/04 05:21:32;;;;;;;765.23;707.70;;;;;;;17.32;85.00;99417.78;5044273;28;20494;-72
2023/08/04 05:23:58;;;;;;;668.70;622.10;;;;;;;17.39;85.15;99416.16;5044793;28;20277;-72
2023/08/04 05:26:23;;;;;;;942.45;866.95;;;;;;;17.52;84.54;99423.81;5044916;28;20353;-73
2023/08/04 05:28:48;;;;;;;1030.03;940.38;;;;;;;17.52;84.85;99421.88;5044440;28;20029;-72
2023/08/04 05:31:13;;;;;;;1006.35;917.78;;;;;;;17.53;84.99;99428.22;5044767;28;20055;-73
2023/08/04 05:33:39;;;;;;;1002.27;919.10;;;;;;;17.51;85.35;99425.78;5044896;28;20628;-73
2023/08/04 05:36:04;;;;;;;998.85;915.83;;;;;;;17.47;84.97;99431.09;5044058;28;20289;-73
2023/08/04 05:38:29;;;;;;;962.20;884.45;;;;;;;17.51;85.00;99434.06;5044359;28;20110;-73
2023/08/04 05:41:00;;;;;;;986.70;905.47;;;;;;;17.53;85.05;99428.22;5043467;28;20179;-73
2023/08/04 05:43:26;;;;;;;830.53;766.05;;;;;;;17.52;84.94;99430.16;5044146;28;20098;-73
2023/08/04 05:45:51;;;;;;;724.55;672.45;;;;;;;17.54;84.84;99438.09;5044422;28;20032;-72
2023/08/04 05:48:16;;;;;;;723.03;670.25;;;;;;;17.64;84.67;99429.53;5044566;28;20052;-72
2023/08/04 05:50:42;;;;;;;900.70;829.17;;;;;;;17.71;84.62;99435.41;5044179;28;20092;-73
2023/08/04 05:53:07;;;;;;;675.50;627.42;;;;;;;17.76;84.06;99436.38;5043800;28;20299;-73
2023/08/04 05:55:33;;;;;;;702.13;650.35;;;;;;;17.79;84.07;99444.00;5043065;28;20116;-73
2023/08/04 05:57:58;;;;;;;769.25;714.63;;;;;;;17.78;83.80;99445.94;5044513;28;20111;-73
2023/08/04 06:00:24;;;;;;;876.47;805.78;;;;;;;17.81;84.05;99445.31;5044315;28;20060;-72
2023/08/04 06:02:49;;;;;;;743.90;689.72;;;;;;;17.85;84.31;99451.78;5044203;28;20128;-73
2023/08/04 06:05:14;;;;;;;808.65;745.50;;;;;;;17.88;84.03;99452.28;5043432;28;20102;-72
2023/08/04 06:07:40;;;;;;;721.60;669.50;;;;;;;17.85;84.09;99457.31;5043970;28;20037;-73
2023/08/04 06:10:06;;;;;;;845.50;784.15;;;;;;;17.94;83.86;99459.28;5042808;28;20633;-73
2023/08/04 06:12:32;;;;;;;992.17;909.63;;;;;;;17.97;84.20;99453.91;5043419;28;20494;-73
2023/08/04 06:14:57;;;;;;;708.90;657.72;;;;;;;17.93;83.86;99452.94;5042952;28;20033;-73
2023/08/04 06:17:22;;;;;;;658.58;612.38;;;;;;;18.01;83.99;99464.28;5043557;28;20127;-73
2023/08/04 06:19:48;;;;;;;901.97;835.00;;;;;;;18.04;83.97;99464.44;5043147;28;20091;-72
2023/08/04 06:22:13;;;;;;;804.97;746.50;;;;;;;18.09;83.99;99464.31;5042896;28;20041;-73
2023/08/04 06:24:39;;;;;;;822.65;761.97;;;;;;;18.09;84.03;99467.06;5042379;28;20242;-73
2023/08/04 06:27:04;;;;;;;879.00;814.25;;;;;;;18.06;83.75;99466.91;5043286;28;20047;-73
2023/08/04 06:29:29;;;;;;;860.17;796.47;;;;;;;18.15;83.71;99480.69;5025578;28;21101;-74
2023/08/04 06:31:55;;;;;;;722.22;670.25;;;;;;;18.15;83.90;99477.94;5025602;28;20417;-74
2023/08/04 06:34:20;;;;;;;820.22;759.35;;;;;;;18.12;83.59;99476.66;5043168;28;20043;-74
2023/08/04 06:36:46;;;;;;;882.28;818.83;;;;;;;18.11;83.72;99479.72;5042427;28;20068;-73
2023/08/04 06:39:11;;;;;;;900.75;832.70;;;;;;;18.18;83.73;99478.13;5043840;28;20169;-73
2023/08/04 06:41:37;;;;;;;720.60;667.20;;;;;;;18.29;83.37;99486.91;5043295;28;20132;-73
2023/08/04 06:44:02;;;;;;;880.70;816.78;;;;;;;18.19;82.94;99481.69;5043192;28;20766;-74
2023/08/04 06:46:27;;;;;;;796.75;739.58;;;;;;;18.21;83.67;99490.47;5042553;28;20529;-73
2023/08/04 06:48:52;;;;;;;864.57;802.77;;;;;;;18.30;83.42;99487.72;5043087;28;20110;-73
2023/08/04 06:51:18;;;;;;;873.17;809.20;;;;;;;18.31;83.51;99484.63;5042761;28;20250;-73
2023/08/04 06:53:43;;;;;;;773.67;718.88;;;;;;;18.43;82.98;99491.44;5043187;28;20294;-73
2023/08/04 06:56:09;;;;;;;680.97;631.80;;;;;;;18.43;83.31;99491.44;5043617;28;20433;-74
2023/08/04 06:58:34;;;;;;;916.85;849.88;;;;;;;18.58;83.07;99503.13;5043276;28;20336;-73
2023/08/04 07:00:59;;;;;;;637.37;593.07;;;;;;;18.61;82.59;99508.81;5043458;28;20395;-75
2023/08/04 07:03:24;;;;;;;702.40;652.43;;;;;;;18.63;83.05;99501.00;5042082;28;20285;-74
2023/08/04 07:05:50;;;;;;;913.30;847.07;;;;;;;18.67;82.94;99503.94;5043152;28;20284;-71
2023/08/04 07:08:15;;;;;;;802.30;745.58;;;;;;;18.67;82.93;99507.50;5043931;28;20282;-75
2023/08/04 07:10:40;;;;;;;812.53;754.43;;;;;;;18.69;83.10;99509.97;5044700;28;20051;-72
2023/08/04 07:13:06;;;;;;;728.38;677.10;;;;;;;18.63;83.34;99517.56;5043836;28;20273;-74
2023/08/04 07:15:31;;;;;;;924.97;855.75;;;;;;;18.60;82.49;99517.41;5043066;28;20039;-74
2023/08/04 07:17:57;;;;;;;756.95;703.30;;;;;;;18.67;82.32;99520.53;5024624;28;20131;-72
2023/08/04 07:20:22;;;;;;;914.63;845.03;;;;;;;18.64;82.77;99521.16;5042997;28;20682;-75
2023/08/04 07:22:47;;;;;;;805.83;745.97;;;;;;;18.56;82.70;99522.78;5043630;28;20297;-73
2023/08/04 07:25:12;;;;;;;889.05;824.88;;;;;;;18.69;82.48;99515.47;5033565;28;20086;-73
2023/08/04 07:27:38;;;;;;;892.15;826.60;;;;;;;18.81;82.25;99527.81;5043834;28;20036;-72
2023/08/04 07:30:04;;;;;;;781.90;719.25;;;;;;;18.81;82.38;99522.28;5043822;28;20037;-72
2023/08/04 07:32:29;;;;;;;1009.35;928.28;;;;;;;18.81;82.22;99516.75;5042832;28;20132;-72
2023/08/04 07:34:54;;;;;;;792.33;733.13;;;;;;;18.89;82.29;99521.47;5042479;28;20045;-72
2023/08/04 07:37:19;;;;;;;734.57;681.40;;;;;;;18.94;82.03;99526.81;5044621;28;20058;-74
2023/08/04 07:39:45;;;;;;;871.80;806.63;;;;;;;18.92;81.96;99526.31;5042415;28;21223;-74
2023/08/04 07:42:10;;;;;;;766.05;711.78;;;;;;;19.08;81.47;99520.28;5042872;28;20269;-73
2023/08/04 07:44:35;;;;;;;786.03;731.80;;;;;;;18.99;80.29;99521.13;5042307;28;20041;-74
2023/08/04 07:47:01;;;;;;;488.67;458.92;;;;;;;18.98;80.80;99527.78;5043142;28;20461;-74
2023/08/04 07:49:26;;;;;;;642.65;599.40;;;;;;;19.07;80.80;99526.94;5043189;28;20486;-73
2023/08/04 07:51:51;;;;;;;932.67;863.03;;;;;;;19.02;81.55;99523.22;5044554;28;20040;-72
2023/08/04 07:54:16;;;;;;;876.73;816.20;;;;;;;19.08;81.05;99525.81;5041573;28;20278;-72
2023/08/04 07:56:42;;;;;;;705.93;658.13;;;;;;;19.19;80.69;99527.13;5042088;28;20304;-72
2023/08/04 07:59:07;;;;;;;572.77;536.13;;;;;;;19.21;80.17;99533.13;5041400;28;20351;-73
2023/08/04 08:01:32;;;;;;;623.75;583.03;;;;;;;19.21;80.44;99530.34;5041372;28;20258;-74
2023/08/04 08:03:57;;;;;;;483.57;454.63;;;;;;;19.29;80.33;99531.47;5040758;28;20048;-72
2023/08/04 08:06:23;;;;;;;479.30;448.70;;;;;;;19.39;79.85;99530.28;5041571;28;20333;-72
2023/08/04 08:08:48;;;;;;;459.48;431.20;;;;;;;19.50;79.56;99529.94;5041284;28;20284;-74
2023/08/04 08:11:14;;;;;;;749.38;699.72;;;;;;;19.44;79.48;99538.44;5042149;28;20031;-73
2023/08/04 08:13:39;;;;;;;751.83;701.65;;;;;;;19.58;79.34;99534.63;5040870;28;20041;-72
2023/08/04 08:16:09;;;;;;;611.80;570.75;;;;;;;19.58;79.20;99537.38;5042223;28;20397;-72
2023/08/04 08:18:35;;;;;;;551.35;515.53;;;;;;;19.55;79.35;99538.03;5040276;28;20047;-73
2023/08/04 08:21:04;;;;;;;549.55;514.53;;;;;;;19.33;79.36;99542.66;5042658;28;20041;-72
2023/08/04 08:23:29;;;;;;;512.25;479.48;;;;;;;19.29;79.92;99544.47;5040754;28;20064;-73
2023/08/04 08:25:54;;;;;;;727.33;678.23;;;;;;;19.34;79.80;99544.31;5042104;28;20033;-74
2023/08/04 08:28:20;;;;;;;429.47;404.97;;;;;;;19.36;79.01;99547.56;5041301;28;20276;-73
2023/08/04 08:30:45;;;;;;;702.60;655.33;;;;;;;19.39;78.97;99546.88;5041848;28;20273;-74
2023/08/04 08:33:10;;;;;;;814.72;759.42;;;;;;;19.32;78.85;99550.13;5041450;28;20033;-73
2023/08/04 08:35:36;;;;;;;777.92;724.65;;;;;;;19.31;78.94;99553.25;5041315;28;20555;-73
2023/08/04 08:38:01;;;;;;;783.03;731.45;;;;;;;19.30;79.29;99554.41;5041561;28;20043;-73
2023/08/04 08:40:27;;;;;;;736.83;687.00;;;;;;;19.36;78.41;99553.09;5040979;28;20072;-73
2023/08/04 08:42:53;;;;;;;726.33;678.50;;;;;;;19.34;77.70;99549.84;5041787;28;20409;-74
2023/08/04 08:45:19;;;;;;;796.50;743.30;;;;;;;19.48;78.15;99550.44;5041271;28;20608;-73
2023/08/04 08:47:46;;;;;;;820.92;764.13;;;;;;;19.60;77.88;99557.22;5041008;28;20056;-73
2023/08/04 08:50:12;;;;;;;814.42;759.38;;;;;;;19.56;77.51;99561.78;5041543;28;20063;-76
2023/08/04 08:52:39;;;;;;;777.92;725.55;;;;;;;19.50;77.60;99563.09;5041689;28;20021;-76
2023/08/04 08:55:05;;;;;;;739.90;690.15;;;;;;;19.54;77.78;99558.53;5040955;28;20040;-76
2023/08/04 08:57:31;;;;;;;709.13;662.63;;;;;;;19.56;77.12;99564.56;5040977;28;20287;-78
2023/08/04 08:59:58;;;;;;;272.10;256.73;;;;;;;19.62;76.83;99566.00;5041535;28;20045;-76
2023/08/04 09:02:23;;;;;;;233.90;221.48;;;;;;;19.81;76.17;99567.56;5041132;28;20075;-77
2023/08/04 09:04:50;;;;;;;333.60;313.20;;;;;;;19.88;75.40;99559.53;5040677;28;20053;-76
2023/08/04 09:07:15;;;;;;;452.77;423.45;;;;;;;20.01;74.49;99562.41;5041578;28;20041;-79
2023/08/04 09:09:40;;;;;;;247.37;232.43;;;;;;;20.07;74.83;99569.38;5041394;28;20049;-77
2023/08/04 09:12:07;;;;;;;666.72;622.42;;;;;;;20.14;74.68;99568.84;5041343;28;20266;-77
2023/08/04 09:14:49;;;;;;;398.33;373.08;;;;;;;20.06;74.42;99571.31;5041398;28;20037;-75
2023/08/04 09:17:30;;;;;;;695.95;644.45;;;;;;;20.01;74.33;99567.94;5044348;28;20132;-76
2023/08/04 09:19:55;;;;;;;468.50;437.20;;;;;;;20.12;74.97;99571.97;5044706;28;20578;-76
2023/08/04 09:22:21;;;;;;;399.10;373.63;;;;;;;20.25;73.82;99564.56;5045021;28;20120;-76
2023/08/04 09:24:58;;;;;;;583.58;543.20;;;;;;;20.29;73.55;99559.97;5043988;28;20067;-75
2023/08/04 09:27:33;;;;;;;428.25;400.23;;;;;;;20.43;73.75;99575.50;5045107;28;20033;-76
2023/08/04 09:30:01;;;;;;;224.38;213.32;;;;;;;20.42;73.69;99574.69;5026368;28;20041;-76
2023/08/04 09:32:28;;;;;;;865.13;801.85;;;;;;;20.31;73.47;99567.94;5044525;28;20382;-77
2023/08/04 09:35:02;;;;;;;921.28;853.47;;;;;;;20.28;73.00;99574.94;5044336;28;20083;-77
2023/08/04 09:37:31;;;;;;;716.38;665.50;;;;;;;20.35;73.28;99579.16;5044142;28;20406;-77
2023/08/04 09:39:56;;;;;;;412.30;386.15;;;;;;;20.44;73.20;99579.09;5044287;28;20182;-77
2023/08/04 09:42:21;;;;;;;904.88;839.22;;;;;;;20.46;72.03;99579.56;5045159;28;20156;-77
2023/08/04 09:44:54;;;;;;;946.10;871.35;;;;;;;20.44;70.68;99582.69;5043764;28;20414;-77
2023/08/04 09:47:24;;;;;;;834.70;769.45;;;;;;;20.33;69.70;99575.91;5043902;28;20036;-78
2023/08/04 09:49:50;;;;;;;806.78;747.60;;;;;;;20.30;70.32;99571.84;5043684;28;20068;-76
2023/08/04 09:52:30;;;;;;;808.92;749.72;;;;;;;20.32;70.06;99577.84;5044586;28;20067;-78
2023/08/04 09:54:56;;;;;;;816.67;756.67;;;;;;;20.36;70.94;99575.25;5045216;28;20463;-83
2023/08/04 09:57:23;;;;;;;850.53;774.80;;;;;;;20.28;71.66;99579.66;5026249;28;20037;-85
2023/08/04 09:59:52;;;;;;;937.70;865.03;;;;;;;20.20;72.35;99594.41;5044649;28;20179;-73
2023/08/04 10:02:19;;;;;;;978.67;904.08;;;;;;;20.07;72.86;99591.50;5044178;28;20044;-78
2023/08/04 10:04:54;;;;;;;989.22;912.25;;;;;;;20.03;73.77;99590.53;5043614;28;20498;-81
2023/08/04 10:07:20;;;;;;;963.47;890.38;;;;;;;20.02;73.28;99589.72;5045437;28;20025;-79
2023/08/04 10:09:47;;;;;;;904.53;836.72;;;;;;;20.05;73.63;99588.25;5044289;28;20053;-78
2023/08/04 10:12:14;;;;;;;870.03;801.15;;;;;;;19.97;73.48;99595.47;5044668;28;20389;-79
2023/08/04 10:14:39;;;;;;;845.45;775.05;;;;;;;20.03;73.42;99596.06;5043721;28;20505;-79
2023/08/04 10:17:05;;;;;;;850.55;776.70;;;;;;;20.11;73.39;99586.13;5043951;28;20136;-79
2023/08/04 10:19:33;;;;;;;997.42;915.90;;;;;;;20.24;72.98;99595.34;5027921;28;20044;-77
2023/08/04 10:22:07;;;;;;;997.83;917.00;;;;;;;20.28;73.01;99596.28;5046724;28;20560;-80
2023/08/04 10:24:37;;;;;;;1018.53;934.05;;;;;;;20.30;73.36;99580.97;5051772;28;20567;-76
2023/08/04 10:27:18;;;;;;;870.13;798.60;;;;;;;20.32;72.60;99583.38;5052297;28;20064;-78
2023/08/04 10:29:44;;;;;;;989.20;909.63;;;;;;;20.35;73.19;99582.72;5052069;28;20662;-78
2023/08/04 10:32:10;;;;;;;800.00;738.63;;;;;;;20.38;72.49;99584.03;5051427;28;20110;-80
2023/08/04 10:34:40;;;;;;;765.92;700.38;;;;;;;20.53;71.83;99591.72;5046452;28;20045;-79
2023/08/04 10:37:05;;;;;;;845.67;775.00;;;;;;;20.77;71.49;99587.47;5044608;28;20064;-82
2023/08/04 10:39:34;;;;;;;786.63;726.20;;;;;;;20.93;70.86;99589.59;5049892;28;20099;-78
2023/08/04 10:42:03;;;;;;;842.92;780.38;;;;;;;21.12;70.69;99596.66;5052726;28;20020;-78
2023/08/04 10:44:30;;;;;;;753.65;695.53;;;;;;;21.30;69.69;99588.16;5051203;28;20811;-77
2023/08/04 10:47:04;;;;;;;791.40;733.80;;;;;;;21.40;69.43;99592.47;5051035;28;20051;-79
2023/08/04 10:49:30;;;;;;;900.80;827.70;;;;;;;21.44;66.27;99593.38;5054371;28;20668;-78
2023/08/04 10:51:57;;;;;;;773.67;710.47;;;;;;;21.73;65.75;99588.00;5034435;28;20070;-76
2023/08/04 10:54:22;;;;;;;282.65;269.08;;;;;;;21.70;63.71;99590.31;5052862;28;20086;-78
2023/08/04 10:56:48;;;;;;;232.73;221.27;;;;;;;21.77;64.42;99591.69;5051844;28;20028;-77